createdAt,value
2018-03-15T00:00:12.808Z,-0.46
2018-03-15T00:02:42.055Z,-0.58
2018-03-15T00:05:10.951Z,-0.68
2018-03-15T00:07:39.762Z,-0.43
2018-03-15T00:10:08.619Z,-0.37
2018-03-15T00:12:37.333Z,-0.56
2018-03-15T00:15:06.007Z,-0.71
2018-03-15T00:17:35.089Z,-0.71
2018-03-15T00:20:03.882Z,-0.79
2018-03-15T00:22:33.492Z,-0.67
2018-03-15T00:25:02.467Z,-0.77
2018-03-15T00:30:51.847Z,-0.37
2018-03-15T00:33:20.840Z,-0.74
2018-03-15T00:35:50.153Z,-0.80
2018-03-15T00:38:19.400Z,-0.86
2018-03-15T00:40:49.159Z,-0.89
2018-03-15T00:43:17.969Z,-0.78
2018-03-15T00:45:46.953Z,-0.61
2018-03-15T00:48:16.138Z,-0.67
2018-03-15T00:50:45.430Z,-0.95
2018-03-15T00:53:14.816Z,-0.91
2018-03-15T00:55:43.495Z,-0.80
2018-03-15T00:58:12.486Z,-1.08
2018-03-15T01:00:41.412Z,-0.81
2018-03-15T01:03:10.313Z,-1.04
2018-03-15T01:05:39.323Z,-0.67
2018-03-15T01:08:08.497Z,-0.85
2018-03-15T01:10:36.572Z,-0.70
2018-03-15T01:13:05.506Z,-1.02
2018-03-15T01:15:34.932Z,-1.14
2018-03-15T01:18:03.925Z,-1.03
2018-03-15T01:20:34.148Z,-1.04
2018-03-15T01:23:02.818Z,-1.12
2018-03-15T01:25:32.068Z,-1.08
2018-03-15T01:28:01.663Z,-0.83
2018-03-15T01:30:34.739Z,-0.74
2018-03-15T01:33:03.938Z,-0.73
2018-03-15T01:35:33.023Z,-0.97
2018-03-15T01:38:01.775Z,-1.16
2018-03-15T01:40:30.092Z,-1.24
2018-03-15T01:42:59.264Z,-1.28
2018-03-15T01:45:28.303Z,-1.14
2018-03-15T01:47:56.996Z,-1.20
2018-03-15T01:50:26.134Z,-1.08
2018-03-15T01:52:56.243Z,-1.19
2018-03-15T01:55:24.999Z,-1.27
2018-03-15T01:57:53.877Z,-1.32
2018-03-15T02:00:23.013Z,-1.37
2018-03-15T02:02:52.255Z,-1.55
2018-03-15T02:05:21.468Z,-1.51
2018-03-15T02:07:51.431Z,-1.58
2018-03-15T02:10:20.818Z,-1.50
2018-03-15T02:12:49.678Z,-1.49
2018-03-15T02:15:17.479Z,-1.66
2018-03-15T02:17:46.978Z,-1.62
2018-03-15T02:20:15.510Z,-1.57
2018-03-15T02:22:44.782Z,-1.82
2018-03-15T02:25:13.553Z,-1.68
2018-03-15T02:27:42.833Z,-1.70
2018-03-15T02:30:11.991Z,-1.58
2018-03-15T02:32:41.593Z,-1.59
2018-03-15T02:35:10.204Z,-1.48
2018-03-15T02:37:40.278Z,-1.51
2018-03-15T02:40:09.842Z,-1.50
2018-03-15T02:42:39.908Z,-1.51
2018-03-15T02:45:09.958Z,-1.70
2018-03-15T02:47:38.669Z,-1.77
2018-03-15T02:50:08.112Z,-1.54
2018-03-15T02:52:37.133Z,-1.66
2018-03-15T02:55:05.781Z,-1.58
2018-03-15T02:57:35.054Z,-1.74
2018-03-15T03:00:04.099Z,-1.47
2018-03-15T03:02:32.691Z,-1.30
2018-03-15T03:05:01.716Z,-1.43
2018-03-15T03:07:31.132Z,-1.46
2018-03-15T03:10:00.217Z,-1.60
2018-03-15T03:12:28.548Z,-1.70
2018-03-15T03:14:57.784Z,-1.54
2018-03-15T03:17:26.567Z,-1.78
2018-03-15T03:19:55.979Z,-1.88
2018-03-15T03:22:24.787Z,-1.91
2018-03-15T03:24:53.375Z,-1.92
2018-03-15T03:27:23.227Z,-1.84
2018-03-15T03:29:52.547Z,-1.98
2018-03-15T03:32:20.292Z,-2.13
2018-03-15T03:34:47.816Z,-2.22
2018-03-15T03:37:17.655Z,-2.19
2018-03-15T03:39:46.686Z,-2.20
2018-03-15T03:42:15.809Z,-2.11
2018-03-15T03:44:44.461Z,-2.34
2018-03-15T03:47:13.578Z,-2.34
2018-03-15T03:49:43.069Z,-2.30
2018-03-15T03:52:12.279Z,-1.97
2018-03-15T03:54:41.197Z,-2.10
2018-03-15T03:57:10.949Z,-2.03
2018-03-15T03:59:40.102Z,-1.94
2018-03-15T04:02:09.163Z,-1.89
2018-03-15T04:04:39.091Z,-1.99
2018-03-15T04:07:07.662Z,-2.08
2018-03-15T04:09:36.667Z,-1.93
2018-03-15T04:12:05.337Z,-1.87
2018-03-15T04:14:34.514Z,-2.02
2018-03-15T04:17:03.375Z,-2.03
2018-03-15T04:19:32.753Z,-2.17
2018-03-15T04:22:01.478Z,-2.26
2018-03-15T04:24:30.913Z,-2.12
2018-03-15T04:27:00.573Z,-2.22
2018-03-15T04:29:30.047Z,-2.24
2018-03-15T04:31:59.292Z,-2.51
2018-03-15T04:34:27.573Z,-2.54
2018-03-15T04:36:56.586Z,-2.56
2018-03-15T04:39:25.598Z,-2.49
2018-03-15T04:41:54.392Z,-2.56
2018-03-15T04:44:23.248Z,-2.61
2018-03-15T04:46:52.353Z,-2.54
2018-03-15T04:49:22.107Z,-2.15
2018-03-15T04:51:51.277Z,-2.26
2018-03-15T04:54:19.988Z,-2.14
2018-03-15T04:56:48.953Z,-2.05
2018-03-15T04:59:17.447Z,-1.98
2018-03-15T05:01:45.073Z,-2.23
2018-03-15T05:04:14.082Z,-2.19
2018-03-15T05:06:42.917Z,-2.21
2018-03-15T05:09:12.728Z,-2.15
2018-03-15T05:11:40.454Z,-2.11
2018-03-15T05:14:09.534Z,-2.15
2018-03-15T05:16:39.312Z,-2.29
2018-03-15T05:19:08.397Z,-2.42
2018-03-15T05:21:36.732Z,-2.38
2018-03-15T05:24:05.448Z,-2.50
2018-03-15T05:26:34.447Z,-2.51
2018-03-15T05:29:03.298Z,-2.21
2018-03-15T05:31:32.798Z,-2.33
2018-03-15T05:34:02.012Z,-2.31
2018-03-15T05:36:31.329Z,-2.03
2018-03-15T05:39:00.417Z,-2.03
2018-03-15T05:41:29.948Z,-2.23
2018-03-15T05:43:58.887Z,-2.13
2018-03-15T05:46:28.044Z,-1.91
2018-03-15T05:48:57.100Z,-1.74
2018-03-15T05:51:26.411Z,-1.80
2018-03-15T05:53:55.827Z,-1.64
2018-03-15T05:56:25.004Z,-1.34
2018-03-15T05:58:54.432Z,-1.06
2018-03-15T06:01:22.153Z,-1.06
2018-03-15T06:03:49.864Z,-1.04
2018-03-15T06:06:19.040Z,-1.56
2018-03-15T06:08:48.003Z,-1.61
2018-03-15T06:11:18.407Z,-1.49
2018-03-15T06:13:47.708Z,-1.21
2018-03-15T06:16:17.268Z,-0.96
2018-03-15T06:18:46.244Z,-1.01
2018-03-15T06:21:15.053Z,-1.25
2018-03-15T06:23:43.340Z,-1.32
2018-03-15T06:26:12.763Z,-1.07
2018-03-15T06:28:42.017Z,-0.81
2018-03-15T06:31:11.287Z,-0.57
2018-03-15T06:33:40.723Z,-0.78
2018-03-15T06:36:09.779Z,-0.93
2018-03-15T06:38:39.031Z,-1.08
2018-03-15T06:41:06.941Z,-0.64
2018-03-15T06:43:35.583Z,-0.22
2018-03-15T06:46:04.498Z,-0.07
2018-03-15T06:48:33.847Z,-0.23
2018-03-15T06:51:02.552Z,-0.12
2018-03-15T06:53:31.612Z,0.57
2018-03-15T06:56:00.202Z,0.83
2018-03-15T06:58:29.432Z,0.88
2018-03-15T07:00:58.439Z,1.21
2018-03-15T07:03:27.301Z,1.36
2018-03-15T07:05:54.848Z,1.56
2018-03-15T07:08:23.229Z,1.09
2018-03-15T07:10:50.852Z,1.50
2018-03-15T07:13:19.652Z,1.86
2018-03-15T07:15:47.315Z,2.25
2018-03-15T07:18:15.189Z,1.82
2018-03-15T07:20:42.800Z,1.99
2018-03-15T07:23:12.089Z,1.81
2018-03-15T07:25:39.781Z,2.24
2018-03-15T07:28:07.437Z,2.51
2018-03-15T07:30:36.487Z,2.73
2018-03-15T07:33:06.065Z,2.68
2018-03-15T07:35:35.181Z,3.02
2018-03-15T07:38:04.183Z,2.99
2018-03-15T07:40:33.608Z,2.65
2018-03-15T07:43:01.507Z,3.17
2018-03-15T07:45:30.539Z,3.47
2018-03-15T07:47:59.308Z,2.73
2018-03-15T07:50:26.875Z,2.49
2018-03-15T07:52:56.187Z,2.95
2018-03-15T07:55:24.441Z,3.20
2018-03-15T07:57:52.933Z,3.13
2018-03-15T08:00:22.204Z,3.40
2018-03-15T08:02:51.156Z,3.49
2018-03-15T08:05:20.066Z,3.89
2018-03-15T08:07:49.122Z,3.97
2018-03-15T08:10:18.299Z,3.37
2018-03-15T08:12:47.256Z,3.30
2018-03-15T08:15:15.923Z,3.58
2018-03-15T08:17:45.682Z,4.66
2018-03-15T08:20:14.234Z,4.82
2018-03-15T08:22:43.666Z,5.38
2018-03-15T08:25:13.103Z,5.83
2018-03-15T08:27:42.434Z,6.07
2018-03-15T08:30:12.118Z,6.27
2018-03-15T08:32:41.353Z,6.49
2018-03-15T08:35:10.824Z,6.66
2018-03-15T08:37:38.752Z,6.90
2018-03-15T08:40:07.363Z,7.46
2018-03-15T08:42:36.260Z,7.11
2018-03-15T08:45:05.346Z,7.46
2018-03-15T08:47:34.179Z,7.84
2018-03-15T08:50:02.254Z,8.54
2018-03-15T08:52:31.720Z,9.20
2018-03-15T08:54:59.718Z,9.24
2018-03-15T08:57:28.338Z,9.62
2018-03-15T08:59:57.602Z,9.88
2018-03-15T09:02:27.078Z,10.48
2018-03-15T09:04:55.673Z,10.57
2018-03-15T09:07:24.326Z,10.55
2018-03-15T09:09:53.454Z,10.47
2018-03-15T09:12:22.665Z,11.23
2018-03-15T09:14:51.727Z,10.59
2018-03-15T09:17:20.917Z,11.56
2018-03-15T09:19:50.283Z,11.09
2018-03-15T09:22:19.789Z,11.26
2018-03-15T09:24:49.153Z,11.13
2018-03-15T09:27:18.073Z,11.68
2018-03-15T09:29:46.345Z,11.76
2018-03-15T09:32:14.442Z,12.70
2018-03-15T09:34:42.854Z,12.65
2018-03-15T09:37:11.457Z,11.99
2018-03-15T09:39:42.648Z,11.99
2018-03-15T09:42:11.881Z,12.82
2018-03-15T09:44:40.880Z,13.30
2018-03-15T09:47:09.476Z,11.64
2018-03-15T09:49:38.245Z,11.93
2018-03-15T09:52:07.618Z,12.01
2018-03-15T09:54:36.473Z,10.96
2018-03-15T09:57:05.488Z,11.13
2018-03-15T09:59:34.187Z,11.49
2018-03-15T10:02:03.965Z,11.27
2018-03-15T10:04:33.094Z,11.48
2018-03-15T10:07:02.166Z,11.99
2018-03-15T10:09:31.576Z,12.02
2018-03-15T10:12:00.521Z,11.77
2018-03-15T10:14:29.212Z,13.49
2018-03-15T10:16:58.413Z,13.65
2018-03-15T10:19:28.181Z,13.99
2018-03-15T10:21:57.725Z,13.30
2018-03-15T10:24:26.675Z,13.01
2018-03-15T10:26:55.772Z,12.91
2018-03-15T10:29:24.642Z,11.11
2018-03-15T10:31:52.979Z,11.07
2018-03-15T10:34:22.207Z,11.33
2018-03-15T10:36:51.147Z,11.25
2018-03-15T10:39:24.106Z,11.17
2018-03-15T10:41:53.721Z,11.51
2018-03-15T10:44:22.499Z,11.47
2018-03-15T10:46:51.462Z,11.92
2018-03-15T10:49:20.011Z,12.66
2018-03-15T10:51:48.966Z,13.39
2018-03-15T10:54:17.415Z,13.83
2018-03-15T10:56:47.317Z,14.79
2018-03-15T10:59:15.884Z,14.68
2018-03-15T11:05:00.559Z,13.12
2018-03-15T11:07:30.325Z,13.15
2018-03-15T11:09:59.958Z,12.68
2018-03-15T11:12:28.582Z,12.54
2018-03-15T11:14:57.093Z,11.91
2018-03-15T11:17:25.730Z,12.33
2018-03-15T11:19:54.497Z,12.63
2018-03-15T11:22:23.829Z,12.57
2018-03-15T11:24:52.395Z,13.44
2018-03-15T11:27:21.210Z,15.52
2018-03-15T11:29:50.110Z,17.96
2018-03-15T11:32:19.380Z,20.68
2018-03-15T11:34:48.256Z,22.33
2018-03-15T11:37:17.083Z,24.70
2018-03-15T11:39:45.837Z,25.27
2018-03-15T11:42:15.346Z,27.39
2018-03-15T11:44:44.032Z,25.17
2018-03-15T11:47:12.419Z,20.93
2018-03-15T11:49:41.214Z,18.36
2018-03-15T11:52:09.970Z,21.23
2018-03-15T11:54:39.229Z,20.24
2018-03-15T11:57:08.819Z,18.27
2018-03-15T11:59:37.842Z,17.82
2018-03-15T12:02:06.465Z,17.78
2018-03-15T12:04:35.051Z,17.17
2018-03-15T12:07:03.868Z,15.70
2018-03-15T12:09:33.353Z,16.37
2018-03-15T12:12:01.743Z,16.77
2018-03-15T12:14:30.245Z,17.05
2018-03-15T12:16:59.099Z,17.88
2018-03-15T12:19:27.963Z,16.71
2018-03-15T12:21:56.692Z,16.14
2018-03-15T12:24:25.148Z,16.63
2018-03-15T12:26:53.228Z,16.31
2018-03-15T12:29:21.887Z,15.62
2018-03-15T12:31:50.944Z,14.94
2018-03-15T12:34:20.129Z,15.45
2018-03-15T12:36:49.019Z,14.77
2018-03-15T12:39:16.657Z,14.78
2018-03-15T12:41:44.289Z,14.13
2018-03-15T12:44:13.383Z,14.09
2018-03-15T12:46:42.444Z,13.76
2018-03-15T12:49:11.539Z,13.26
2018-03-15T12:51:40.813Z,13.35
2018-03-15T12:54:09.212Z,13.32
2018-03-15T12:56:36.734Z,13.57
2018-03-15T12:59:05.101Z,12.90
2018-03-15T13:01:34.425Z,12.97
2018-03-15T13:04:03.255Z,13.10
2018-03-15T13:06:32.101Z,13.65
2018-03-15T13:09:00.695Z,13.85
2018-03-15T13:11:29.803Z,14.04
2018-03-15T13:13:58.839Z,13.72
2018-03-15T13:16:26.967Z,13.65
2018-03-15T13:18:55.367Z,12.69
2018-03-15T13:21:24.269Z,13.14
2018-03-15T13:23:53.192Z,12.75
2018-03-15T13:26:21.555Z,12.33
2018-03-15T13:28:50.490Z,12.01
2018-03-15T13:31:18.816Z,12.00
2018-03-15T13:33:47.453Z,12.03
2018-03-15T13:36:16.140Z,11.95
2018-03-15T13:38:45.223Z,11.81
2018-03-15T13:41:14.154Z,11.84
2018-03-15T13:43:44.293Z,11.37
2018-03-15T13:46:13.215Z,11.50
2018-03-15T13:48:41.721Z,11.36
2018-03-15T13:51:10.733Z,11.53
2018-03-15T13:53:39.309Z,11.50
2018-03-15T13:56:08.109Z,11.44
2018-03-15T13:58:36.577Z,11.29
2018-03-15T14:01:04.298Z,11.41
2018-03-15T14:03:33.268Z,11.51
2018-03-15T14:06:02.308Z,11.43
2018-03-15T14:08:31.359Z,11.41
2018-03-15T14:11:00.496Z,11.45
2018-03-15T14:13:30.090Z,11.44
2018-03-15T14:15:59.114Z,11.67
2018-03-15T14:18:28.452Z,11.57
2018-03-15T14:20:57.694Z,11.55
2018-03-15T14:23:25.743Z,11.35
2018-03-15T14:25:54.862Z,11.25
2018-03-15T14:28:23.511Z,11.49
2018-03-15T14:30:52.314Z,11.46
2018-03-15T14:33:20.780Z,11.41
2018-03-15T14:35:49.662Z,11.37
2018-03-15T14:38:18.806Z,11.33
2018-03-15T14:40:47.208Z,11.34
2018-03-15T14:43:15.946Z,11.23
2018-03-15T14:45:44.659Z,11.23
2018-03-15T14:48:12.362Z,11.31
2018-03-15T14:50:41.284Z,11.35
2018-03-15T14:53:10.209Z,11.39
2018-03-15T14:55:39.102Z,11.19
2018-03-15T14:58:08.326Z,11.30
2018-03-15T15:00:36.739Z,11.03
2018-03-15T15:03:04.926Z,11.24
2018-03-15T15:05:34.303Z,11.14
2018-03-15T15:08:03.123Z,11.16
2018-03-15T15:10:32.179Z,10.93
2018-03-15T15:13:01.007Z,11.23
2018-03-15T15:15:31.173Z,10.78
2018-03-15T15:17:59.681Z,10.63
2018-03-15T15:20:28.504Z,10.78
2018-03-15T15:22:57.577Z,10.83
2018-03-15T15:25:26.768Z,10.73
2018-03-15T15:27:56.153Z,10.96
2018-03-15T15:30:25.623Z,11.05
2018-03-15T15:32:54.145Z,10.74
2018-03-15T15:35:23.268Z,10.59
2018-03-15T15:37:51.972Z,10.36
2018-03-15T15:40:20.975Z,10.00
2018-03-15T15:42:49.760Z,10.10
2018-03-15T15:45:18.261Z,10.11
2018-03-15T15:47:46.494Z,10.38
2018-03-15T15:50:15.748Z,10.44
2018-03-15T15:52:44.367Z,10.57
2018-03-15T15:55:13.567Z,10.82
2018-03-15T15:57:42.392Z,10.49
2018-03-15T16:00:11.384Z,10.25
2018-03-15T16:02:39.118Z,10.10
2018-03-15T16:05:08.404Z,10.36
2018-03-15T16:07:37.384Z,10.67
2018-03-15T16:10:05.014Z,11.01
2018-03-15T16:12:33.034Z,11.23
2018-03-15T16:15:03.317Z,11.47
2018-03-15T16:17:31.465Z,11.67
2018-03-15T16:20:00.468Z,11.77
2018-03-15T16:22:28.167Z,11.83
2018-03-15T16:24:55.997Z,11.95
2018-03-15T16:27:24.173Z,12.04
2018-03-15T16:29:51.710Z,11.88
2018-03-15T16:32:19.875Z,12.02
2018-03-15T16:37:17.388Z,11.44
2018-03-15T16:39:46.266Z,11.45
2018-03-15T16:42:13.889Z,11.23
2018-03-15T16:44:41.851Z,10.61
2018-03-15T16:47:10.797Z,10.50
2018-03-15T16:49:38.874Z,10.53
2018-03-15T16:52:07.461Z,10.30
2018-03-15T16:54:35.259Z,10.46
2018-03-15T16:57:03.951Z,10.38
2018-03-15T16:59:33.326Z,10.38
2018-03-15T17:02:01.101Z,10.22
2018-03-15T17:04:30.208Z,10.15
2018-03-15T17:06:59.103Z,9.83
2018-03-15T17:09:28.060Z,9.53
2018-03-15T17:11:56.294Z,9.52
2018-03-15T17:14:24.145Z,9.56
2018-03-15T17:16:52.758Z,9.24
2018-03-15T17:19:20.717Z,9.30
2018-03-15T17:21:48.459Z,9.29
2018-03-15T17:24:17.577Z,9.20
2018-03-15T17:26:45.398Z,8.96
2018-03-15T17:29:13.020Z,8.92
2018-03-15T17:31:41.279Z,8.99
2018-03-15T17:34:09.126Z,9.05
2018-03-15T17:36:38.613Z,8.85
2018-03-15T17:39:06.157Z,9.02
2018-03-15T17:41:35.296Z,9.19
2018-03-15T17:44:04.036Z,9.29
2018-03-15T17:46:31.992Z,9.17
2018-03-15T17:49:00.334Z,9.08
2018-03-15T17:51:28.010Z,9.07
2018-03-15T17:53:56.970Z,9.11
2018-03-15T17:56:25.035Z,9.09
2018-03-15T17:58:52.717Z,9.08
2018-03-15T18:01:20.301Z,9.01
2018-03-15T18:03:48.030Z,8.93
2018-03-15T18:06:17.338Z,8.86
2018-03-15T18:08:44.867Z,8.74
2018-03-15T18:11:12.452Z,8.63
2018-03-15T18:13:40.967Z,8.75
2018-03-15T18:16:08.571Z,8.65
2018-03-15T18:18:36.622Z,8.51
2018-03-15T18:21:04.309Z,8.48
2018-03-15T18:23:33.445Z,8.43
2018-03-15T18:26:01.440Z,8.34
2018-03-15T18:28:29.187Z,8.23
2018-03-15T18:30:56.957Z,8.12
2018-03-15T18:33:24.884Z,7.94
2018-03-15T18:35:53.465Z,8.00
2018-03-15T18:38:22.061Z,7.98
2018-03-15T18:40:50.176Z,7.92
2018-03-15T18:43:18.130Z,8.02
2018-03-15T18:45:46.974Z,7.83
2018-03-15T18:48:16.232Z,7.73
2018-03-15T18:50:45.218Z,7.59
2018-03-15T18:53:14.102Z,7.54
2018-03-15T18:55:44.126Z,7.66
2018-03-15T18:58:11.871Z,7.48
2018-03-15T19:00:39.557Z,7.47
2018-03-15T19:03:07.075Z,7.38
2018-03-15T19:05:35.434Z,7.36
2018-03-15T19:08:03.607Z,7.25
2018-03-15T19:10:32.737Z,7.26
2018-03-15T19:13:02.031Z,7.14
2018-03-15T19:15:29.900Z,7.09
2018-03-15T19:17:58.994Z,6.78
2018-03-15T19:20:26.639Z,6.69
2018-03-15T19:22:54.490Z,6.66
2018-03-15T19:25:22.084Z,6.67
2018-03-15T19:27:50.136Z,6.67
2018-03-15T19:30:19.063Z,6.39
2018-03-15T19:32:46.658Z,6.50
2018-03-15T19:35:14.769Z,6.55
2018-03-15T19:37:42.464Z,6.62
2018-03-15T19:40:11.076Z,6.56
2018-03-15T19:42:40.569Z,6.67
2018-03-15T19:45:09.687Z,6.76
2018-03-15T19:47:38.831Z,7.01
2018-03-15T19:50:06.455Z,7.15
2018-03-15T19:52:34.123Z,7.14
2018-03-15T19:55:03.121Z,7.34
2018-03-15T19:57:30.801Z,7.28
2018-03-15T19:59:58.990Z,7.28
2018-03-15T20:02:26.632Z,7.41
2018-03-15T20:04:54.634Z,7.47
2018-03-15T20:07:22.902Z,7.83
2018-03-15T20:09:52.090Z,7.85
2018-03-15T20:12:19.664Z,7.99
2018-03-15T20:14:48.788Z,8.17
2018-03-15T20:17:17.074Z,8.24
2018-03-15T20:19:46.379Z,8.29
2018-03-15T20:22:15.614Z,8.39
2018-03-15T20:24:43.890Z,8.62
2018-03-15T20:27:12.235Z,8.60
2018-03-15T20:29:39.897Z,8.64
2018-03-15T20:32:09.206Z,8.61
2018-03-15T20:34:37.031Z,8.75
2018-03-15T20:37:06.034Z,8.80
2018-03-15T20:39:40.627Z,8.76
2018-03-15T20:42:09.468Z,8.86
2018-03-15T20:44:37.986Z,8.98
2018-03-15T20:47:11.465Z,8.98
2018-03-15T20:49:39.244Z,8.99
2018-03-15T20:52:07.270Z,8.94
2018-03-15T20:54:35.036Z,8.88
2018-03-15T20:57:04.373Z,8.92
2018-03-15T20:59:32.741Z,8.87
2018-03-15T21:02:01.973Z,8.88
2018-03-15T21:04:30.833Z,8.84
2018-03-15T21:06:59.823Z,8.69
2018-03-15T21:09:28.216Z,8.82
2018-03-15T21:11:57.464Z,8.83
2018-03-15T21:14:26.138Z,8.96
2018-03-15T21:16:55.350Z,8.85
2018-03-15T21:19:25.020Z,8.78
2018-03-15T21:21:55.284Z,8.93
2018-03-15T21:24:24.814Z,8.88
2018-03-15T21:26:54.668Z,8.87
2018-03-15T21:29:23.364Z,8.78
2018-03-15T21:31:52.295Z,8.79
2018-03-15T21:34:21.469Z,8.73
2018-03-15T21:36:49.251Z,8.87
2018-03-15T21:39:17.328Z,8.93
2018-03-15T21:41:46.527Z,8.99
2018-03-15T21:44:14.043Z,8.75
2018-03-15T21:46:41.997Z,8.72
2018-03-15T21:49:10.193Z,8.71
2018-03-15T21:51:39.701Z,8.71
2018-03-15T21:54:08.657Z,8.80
2018-03-15T21:56:38.984Z,8.76
2018-03-15T21:59:07.696Z,8.70
2018-03-15T22:01:36.455Z,8.66
2018-03-15T22:04:05.671Z,8.70
2018-03-15T22:06:34.969Z,8.64
2018-03-15T22:09:04.184Z,8.53
2018-03-15T22:11:33.240Z,8.57
2018-03-15T22:14:02.799Z,8.45
2018-03-15T22:16:31.778Z,8.48
2018-03-15T22:19:00.898Z,8.68
2018-03-15T22:21:30.296Z,8.56
2018-03-15T22:23:59.518Z,8.60
2018-03-15T22:26:28.397Z,8.56
2018-03-15T22:28:57.853Z,8.54
2018-03-15T22:31:27.018Z,8.47
2018-03-15T22:33:56.532Z,8.45
2018-03-15T22:36:26.035Z,8.40
2018-03-15T22:38:55.534Z,8.42
2018-03-15T22:41:25.019Z,8.35
2018-03-15T22:43:54.595Z,8.23
2018-03-15T22:46:23.536Z,8.24
2018-03-15T22:48:52.901Z,8.40
2018-03-15T22:51:21.903Z,8.29
2018-03-15T22:53:51.013Z,8.30
2018-03-15T22:56:20.019Z,8.30
2018-03-15T22:58:49.584Z,8.23
2018-03-15T23:01:19.146Z,8.16
2018-03-15T23:03:48.822Z,8.06
2018-03-15T23:06:17.892Z,7.60
2018-03-15T23:08:47.437Z,7.69
2018-03-15T23:11:15.872Z,7.65
2018-03-15T23:13:44.976Z,7.46
2018-03-15T23:16:13.978Z,7.35
2018-03-15T23:18:42.628Z,7.25
2018-03-15T23:21:11.540Z,7.30
2018-03-15T23:23:40.936Z,7.20
2018-03-15T23:26:10.676Z,7.14
2018-03-15T23:28:39.699Z,7.12
2018-03-15T23:31:09.566Z,7.13
2018-03-15T23:33:38.767Z,7.12
2018-03-15T23:36:07.708Z,7.06
2018-03-15T23:38:37.113Z,7.09
2018-03-15T23:41:06.126Z,6.92
2018-03-15T23:43:35.288Z,6.80
2018-03-15T23:46:03.985Z,6.87
2018-03-15T23:48:32.162Z,6.85
2018-03-15T23:51:01.513Z,6.95
2018-03-15T23:53:30.727Z,6.95
2018-03-15T23:56:00.230Z,6.82
2018-03-15T23:58:29.433Z,6.54
